sensor_id;sensor_type;location;lat;lon;timestamp;temperature;humidity
2543;DHT22;1116;51.502;7.414;2022-10-16T00:00:16;15.00;99.90
2543;DHT22;1116;51.502;7.414;2022-10-16T00:02:46;16.70;99.90
2543;DHT22;1116;51.502;7.414;2022-10-16T00:05:20;14.90;99.90
2543;DHT22;1116;51.502;7.414;2022-10-16T00:07:54;15.30;99.90
2543;DHT22;1116;51.502;7.414;2022-10-16T00:10:26;15.00;99.90
2543;DHT22;1116;51.502;7.414;2022-10-16T00:12:57;15.00;99.90
2543;DHT22;1116;51.502;7.414;2022-10-16T00:15:28;15.00;99.90
2543;DHT22;1116;51.502;7.414;2022-10-16T00:17:58;15.00;99.90
2543;DHT22;1116;51.502;7.414;2022-10-16T00:20:33;15.10;99.90
2543;DHT22;1116;51.502;7.414;2022-10-16T00:23:07;14.90;99.90
2543;DHT22;1116;51.502;7.414;2022-10-16T00:25:38;17.00;99.90
2543;DHT22;1116;51.502;7.414;2022-10-16T00:28:09;14.80;99.90
2543;DHT22;1116;51.502;7.414;2022-10-16T00:30:40;14.80;99.90
2543;DHT22;1116;51.502;7.414;2022-10-16T00:33:11;15.00;99.90
2543;DHT22;1116;51.502;7.414;2022-10-16T00:35:45;14.80;99.90
2543;DHT22;1116;51.502;7.414;2022-10-16T00:38:18;16.40;99.90
2543;DHT22;1116;51.502;7.414;2022-10-16T00:40:49;14.90;99.90
2543;DHT22;1116;51.502;7.414;2022-10-16T00:43:38;14.80;99.90
2543;DHT22;1116;51.502;7.414;2022-10-16T00:46:14;14.80;99.90
2543;DHT22;1116;51.502;7.414;2022-10-16T00:48:49;14.90;99.90
2543;DHT22;1116;51.502;7.414;2022-10-16T00:51:23;14.90;99.90
2543;DHT22;1116;51.502;7.414;2022-10-16T00:53:59;14.90;99.90
2543;DHT22;1116;51.502;7.414;2022-10-16T00:56:30;15.00;99.90
2543;DHT22;1116;51.502;7.414;2022-10-16T00:59:03;15.00;99.90
2543;DHT22;1116;51.502;7.414;2022-10-16T01:01:35;15.00;99.90
2543;DHT22;1116;51.502;7.414;2022-10-16T01:04:07;15.00;99.90
2543;DHT22;1116;51.502;7.414;2022-10-16T01:06:43;15.10;99.90
2543;DHT22;1116;51.502;7.414;2022-10-16T01:09:23;15.00;99.90
2543;DHT22;1116;51.502;7.414;2022-10-16T01:11:59;14.90;99.90
2543;DHT22;1116;51.502;7.414;2022-10-16T01:14:39;16.60;99.90
2543;DHT22;1116;51.502;7.414;2022-10-16T01:17:12;16.60;99.90
2543;DHT22;1116;51.502;7.414;2022-10-16T01:20:00;16.20;99.90
2543;DHT22;1116;51.502;7.414;2022-10-16T01:22:39;14.80;99.90
2543;DHT22;1116;51.502;7.414;2022-10-16T01:25:22;14.80;99.90
2543;DHT22;1116;51.502;7.414;2022-10-16T01:27:59;15.20;99.90
2543;DHT22;1116;51.502;7.414;2022-10-16T01:30:32;14.80;99.90
2543;DHT22;1116;51.502;7.414;2022-10-16T01:33:09;14.80;99.90
2543;DHT22;1116;51.502;7.414;2022-10-16T01:35:43;14.80;99.90
2543;DHT22;1116;51.502;7.414;2022-10-16T01:38:20;14.80;99.90
2543;DHT22;1116;51.502;7.414;2022-10-16T01:40:56;15.20;99.90
2543;DHT22;1116;51.502;7.414;2022-10-16T01:43:35;14.70;99.90
2543;DHT22;1116;51.502;7.414;2022-10-16T01:46:08;14.70;99.90
2543;DHT22;1116;51.502;7.414;2022-10-16T01:48:39;14.60;99.90
2543;DHT22;1116;51.502;7.414;2022-10-16T01:51:13;14.60;99.90
2543;DHT22;1116;51.502;7.414;2022-10-16T01:53:47;14.70;99.90
2543;DHT22;1116;51.502;7.414;2022-10-16T01:56:20;14.70;99.90
2543;DHT22;1116;51.502;7.414;2022-10-16T01:58:58;14.60;99.90
2543;DHT22;1116;51.502;7.414;2022-10-16T02:01:34;14.60;99.90
2543;DHT22;1116;51.502;7.414;2022-10-16T02:04:13;14.60;99.90
2543;DHT22;1116;51.502;7.414;2022-10-16T02:06:46;14.60;99.90
2543;DHT22;1116;51.502;7.414;2022-10-16T02:09:17;14.60;99.90
2543;DHT22;1116;51.502;7.414;2022-10-16T02:11:48;14.40;99.90
2543;DHT22;1116;51.502;7.414;2022-10-16T02:14:26;15.40;99.90
2543;DHT22;1116;51.502;7.414;2022-10-16T02:16:57;14.60;99.90
2543;DHT22;1116;51.502;7.414;2022-10-16T02:19:30;14.60;99.90
2543;DHT22;1116;51.502;7.414;2022-10-16T02:22:04;14.60;99.90
2543;DHT22;1116;51.502;7.414;2022-10-16T02:24:40;14.60;99.90
2543;DHT22;1116;51.502;7.414;2022-10-16T02:27:19;14.60;99.90
2543;DHT22;1116;51.502;7.414;2022-10-16T02:30:00;14.60;99.90
2543;DHT22;1116;51.502;7.414;2022-10-16T02:32:39;14.50;99.90
2543;DHT22;1116;51.502;7.414;2022-10-16T02:35:10;14.50;99.90
2543;DHT22;1116;51.502;7.414;2022-10-16T02:37:42;14.50;99.90
2543;DHT22;1116;51.502;7.414;2022-10-16T02:40:13;15.80;99.90
2543;DHT22;1116;51.502;7.414;2022-10-16T02:42:52;14.90;99.90
2543;DHT22;1116;51.502;7.414;2022-10-16T02:45:25;14.50;99.90
2543;DHT22;1116;51.502;7.414;2022-10-16T02:47:59;14.50;99.90
2543;DHT22;1116;51.502;7.414;2022-10-16T02:50:30;14.50;99.90
2543;DHT22;1116;51.502;7.414;2022-10-16T02:53:01;14.60;99.90
2543;DHT22;1116;51.502;7.414;2022-10-16T02:55:33;14.70;99.90
2543;DHT22;1116;51.502;7.414;2022-10-16T02:58:04;14.60;99.90
2543;DHT22;1116;51.502;7.414;2022-10-16T03:00:38;14.60;99.90
2543;DHT22;1116;51.502;7.414;2022-10-16T03:03:09;14.70;99.90
2543;DHT22;1116;51.502;7.414;2022-10-16T03:05:40;14.60;99.90
2543;DHT22;1116;51.502;7.414;2022-10-16T03:08:13;14.30;99.90
2543;DHT22;1116;51.502;7.414;2022-10-16T03:10:44;14.70;99.90
2543;DHT22;1116;51.502;7.414;2022-10-16T03:13:15;14.70;99.90
2543;DHT22;1116;51.502;7.414;2022-10-16T03:15:50;14.70;99.90
2543;DHT22;1116;51.502;7.414;2022-10-16T03:18:21;14.70;99.90
2543;DHT22;1116;51.502;7.414;2022-10-16T03:20:52;14.80;99.90
2543;DHT22;1116;51.502;7.414;2022-10-16T03:23:23;14.70;99.90
2543;DHT22;1116;51.502;7.414;2022-10-16T03:25:54;16.10;99.90
2543;DHT22;1116;51.502;7.414;2022-10-16T03:28:25;14.80;99.90
2543;DHT22;1116;51.502;7.414;2022-10-16T03:30:58;14.80;99.90
2543;DHT22;1116;51.502;7.414;2022-10-16T03:33:29;16.10;99.90
2543;DHT22;1116;51.502;7.414;2022-10-16T03:36:02;16.80;99.90
2543;DHT22;1116;51.502;7.414;2022-10-16T03:38:35;14.80;99.90
2543;DHT22;1116;51.502;7.414;2022-10-16T03:41:06;14.70;99.90
2543;DHT22;1116;51.502;7.414;2022-10-16T03:43:37;15.60;99.90
2543;DHT22;1116;51.502;7.414;2022-10-16T03:46:12;14.70;99.90
2543;DHT22;1116;51.502;7.414;2022-10-16T03:48:42;14.70;99.90
2543;DHT22;1116;51.502;7.414;2022-10-16T03:51:16;16.30;99.90
2543;DHT22;1116;51.502;7.414;2022-10-16T03:53:48;14.70;99.90
2543;DHT22;1116;51.502;7.414;2022-10-16T03:56:21;14.70;99.90
2543;DHT22;1116;51.502;7.414;2022-10-16T03:58:54;14.60;99.90
2543;DHT22;1116;51.502;7.414;2022-10-16T04:01:27;14.60;99.90
2543;DHT22;1116;51.502;7.414;2022-10-16T04:03:58;16.40;99.90
2543;DHT22;1116;51.502;7.414;2022-10-16T04:06:29;14.60;99.90
2543;DHT22;1116;51.502;7.414;2022-10-16T04:09:00;16.70;99.90
2543;DHT22;1116;51.502;7.414;2022-10-16T04:11:31;16.70;99.90
2543;DHT22;1116;51.502;7.414;2022-10-16T04:14:02;14.50;99.90
2543;DHT22;1116;51.502;7.414;2022-10-16T04:16:39;14.50;99.90
2543;DHT22;1116;51.502;7.414;2022-10-16T04:19:09;16.60;99.90
2543;DHT22;1116;51.502;7.414;2022-10-16T04:21:41;14.50;99.90
2543;DHT22;1116;51.502;7.414;2022-10-16T04:24:13;14.50;99.90
2543;DHT22;1116;51.502;7.414;2022-10-16T04:26:44;14.40;99.90
2543;DHT22;1116;51.502;7.414;2022-10-16T04:29:14;14.40;99.90
2543;DHT22;1116;51.502;7.414;2022-10-16T04:31:49;14.40;99.90
2543;DHT22;1116;51.502;7.414;2022-10-16T04:34:23;14.40;99.90
2543;DHT22;1116;51.502;7.414;2022-10-16T04:36:55;14.30;99.90
2543;DHT22;1116;51.502;7.414;2022-10-16T04:39:26;14.40;99.90
2543;DHT22;1116;51.502;7.414;2022-10-16T04:41:56;14.40;99.90
2543;DHT22;1116;51.502;7.414;2022-10-16T04:44:28;15.40;99.90
2543;DHT22;1116;51.502;7.414;2022-10-16T04:47:02;14.40;99.90
2543;DHT22;1116;51.502;7.414;2022-10-16T04:49:33;14.40;99.90
2543;DHT22;1116;51.502;7.414;2022-10-16T04:52:04;14.30;99.90
2543;DHT22;1116;51.502;7.414;2022-10-16T04:54:36;14.30;99.90
2543;DHT22;1116;51.502;7.414;2022-10-16T04:57:07;14.30;99.90
2543;DHT22;1116;51.502;7.414;2022-10-16T04:59:38;14.30;99.90
2543;DHT22;1116;51.502;7.414;2022-10-16T05:02:11;14.30;99.90
2543;DHT22;1116;51.502;7.414;2022-10-16T05:04:42;14.30;99.90
2543;DHT22;1116;51.502;7.414;2022-10-16T05:07:13;14.30;99.90
2543;DHT22;1116;51.502;7.414;2022-10-16T05:09:44;14.30;99.90
2543;DHT22;1116;51.502;7.414;2022-10-16T05:12:17;14.30;99.90
2543;DHT22;1116;51.502;7.414;2022-10-16T05:14:48;16.20;99.90
2543;DHT22;1116;51.502;7.414;2022-10-16T05:17:22;14.30;99.90
2543;DHT22;1116;51.502;7.414;2022-10-16T05:19:53;14.30;99.90
2543;DHT22;1116;51.502;7.414;2022-10-16T05:22:27;14.30;99.90
2543;DHT22;1116;51.502;7.414;2022-10-16T05:24:58;14.30;99.90
2543;DHT22;1116;51.502;7.414;2022-10-16T05:27:28;14.30;99.90
2543;DHT22;1116;51.502;7.414;2022-10-16T05:29:59;14.30;99.90
2543;DHT22;1116;51.502;7.414;2022-10-16T05:32:35;14.30;99.90
2543;DHT22;1116;51.502;7.414;2022-10-16T05:35:07;14.60;99.90
2543;DHT22;1116;51.502;7.414;2022-10-16T05:37:39;14.30;99.90
2543;DHT22;1116;51.502;7.414;2022-10-16T05:40:11;14.30;99.90
2543;DHT22;1116;51.502;7.414;2022-10-16T05:42:42;14.30;99.90
2543;DHT22;1116;51.502;7.414;2022-10-16T05:45:13;14.30;99.90
2543;DHT22;1116;51.502;7.414;2022-10-16T05:47:48;14.30;99.90
2543;DHT22;1116;51.502;7.414;2022-10-16T05:50:19;14.30;99.90
2543;DHT22;1116;51.502;7.414;2022-10-16T05:52:50;14.30;99.90
2543;DHT22;1116;51.502;7.414;2022-10-16T05:55:23;14.30;99.90
2543;DHT22;1116;51.502;7.414;2022-10-16T05:57:54;14.30;99.90
2543;DHT22;1116;51.502;7.414;2022-10-16T06:00:25;14.30;99.90
2543;DHT22;1116;51.502;7.414;2022-10-16T06:02:58;14.30;99.90
2543;DHT22;1116;51.502;7.414;2022-10-16T06:05:30;14.30;99.90
2543;DHT22;1116;51.502;7.414;2022-10-16T06:08:01;14.40;99.90
2543;DHT22;1116;51.502;7.414;2022-10-16T06:10:32;14.40;99.90
2543;DHT22;1116;51.502;7.414;2022-10-16T06:13:02;14.30;99.90
2543;DHT22;1116;51.502;7.414;2022-10-16T06:15:33;14.30;99.90
2543;DHT22;1116;51.502;7.414;2022-10-16T06:18:07;14.40;99.90
2543;DHT22;1116;51.502;7.414;2022-10-16T06:20:38;14.10;99.90
2543;DHT22;1116;51.502;7.414;2022-10-16T06:23:13;14.40;99.90
2543;DHT22;1116;51.502;7.414;2022-10-16T06:25:45;14.40;99.90
2543;DHT22;1116;51.502;7.414;2022-10-16T06:28:16;14.40;99.90
2543;DHT22;1116;51.502;7.414;2022-10-16T06:30:48;14.40;99.90
2543;DHT22;1116;51.502;7.414;2022-10-16T06:33:22;14.50;99.90
2543;DHT22;1116;51.502;7.414;2022-10-16T06:35:53;14.40;99.90
2543;DHT22;1116;51.502;7.414;2022-10-16T06:38:26;14.50;99.90
2543;DHT22;1116;51.502;7.414;2022-10-16T06:40:58;14.50;99.90
2543;DHT22;1116;51.502;7.414;2022-10-16T06:43:29;14.50;99.90
2543;DHT22;1116;51.502;7.414;2022-10-16T06:46:04;14.50;99.90
2543;DHT22;1116;51.502;7.414;2022-10-16T06:48:38;14.50;99.90
2543;DHT22;1116;51.502;7.414;2022-10-16T06:51:12;14.50;99.90
2543;DHT22;1116;51.502;7.414;2022-10-16T06:53:44;14.60;99.90
2543;DHT22;1116;51.502;7.414;2022-10-16T06:56:31;14.70;99.90
2543;DHT22;1116;51.502;7.414;2022-10-16T06:59:03;16.10;99.90
2543;DHT22;1116;51.502;7.414;2022-10-16T07:01:35;14.70;99.90
2543;DHT22;1116;51.502;7.414;2022-10-16T07:04:09;14.70;99.90
2543;DHT22;1116;51.502;7.414;2022-10-16T07:06:40;14.80;99.90
2543;DHT22;1116;51.502;7.414;2022-10-16T07:09:11;14.80;99.90
2543;DHT22;1116;51.502;7.414;2022-10-16T07:11:42;14.90;99.90
2543;DHT22;1116;51.502;7.414;2022-10-16T07:14:18;14.80;99.90
2543;DHT22;1116;51.502;7.414;2022-10-16T07:16:49;14.90;99.90
2543;DHT22;1116;51.502;7.414;2022-10-16T07:19:25;16.80;99.90
2543;DHT22;1116;51.502;7.414;2022-10-16T07:22:03;15.00;99.90
2543;DHT22;1116;51.502;7.414;2022-10-16T07:24:34;15.00;99.90
2543;DHT22;1116;51.502;7.414;2022-10-16T07:27:05;15.00;99.90
2543;DHT22;1116;51.502;7.414;2022-10-16T07:29:39;15.10;99.90
2543;DHT22;1116;51.502;7.414;2022-10-16T07:32:10;15.10;99.90
2543;DHT22;1116;51.502;7.414;2022-10-16T07:34:43;15.00;99.90
2543;DHT22;1116;51.502;7.414;2022-10-16T07:37:14;15.00;99.90
2543;DHT22;1116;51.502;7.414;2022-10-16T07:39:47;14.90;99.90
2543;DHT22;1116;51.502;7.414;2022-10-16T07:42:18;15.00;99.90
2543;DHT22;1116;51.502;7.414;2022-10-16T07:44:49;15.00;99.90
2543;DHT22;1116;51.502;7.414;2022-10-16T07:47:20;15.00;99.90
2543;DHT22;1116;51.502;7.414;2022-10-16T07:49:54;15.00;99.90
2543;DHT22;1116;51.502;7.414;2022-10-16T07:52:26;15.10;99.90
2543;DHT22;1116;51.502;7.414;2022-10-16T07:54:57;15.20;99.90
2543;DHT22;1116;51.502;7.414;2022-10-16T07:57:29;15.30;99.90
2543;DHT22;1116;51.502;7.414;2022-10-16T08:00:00;15.40;99.90
2543;DHT22;1116;51.502;7.414;2022-10-16T08:02:35;16.20;99.90
2543;DHT22;1116;51.502;7.414;2022-10-16T08:05:09;15.50;99.90
2543;DHT22;1116;51.502;7.414;2022-10-16T08:07:40;15.60;99.90
2543;DHT22;1116;51.502;7.414;2022-10-16T08:10:16;15.70;99.90
2543;DHT22;1116;51.502;7.414;2022-10-16T08:12:47;15.80;99.90
2543;DHT22;1116;51.502;7.414;2022-10-16T08:15:18;15.90;99.90
2543;DHT22;1116;51.502;7.414;2022-10-16T08:17:57;16.00;99.90
2543;DHT22;1116;51.502;7.414;2022-10-16T08:20:35;16.10;99.90
2543;DHT22;1116;51.502;7.414;2022-10-16T08:23:07;16.20;99.90
2543;DHT22;1116;51.502;7.414;2022-10-16T08:25:40;16.30;99.90
2543;DHT22;1116;51.502;7.414;2022-10-16T08:28:11;16.30;99.90
2543;DHT22;1116;51.502;7.414;2022-10-16T08:30:43;16.30;99.90
2543;DHT22;1116;51.502;7.414;2022-10-16T08:33:14;16.40;99.90
2543;DHT22;1116;51.502;7.414;2022-10-16T08:35:53;16.50;99.90
2543;DHT22;1116;51.502;7.414;2022-10-16T08:38:24;16.60;99.90
2543;DHT22;1116;51.502;7.414;2022-10-16T08:41:00;16.90;99.90
2543;DHT22;1116;51.502;7.414;2022-10-16T08:43:43;16.60;97.50
2543;DHT22;1116;51.502;7.414;2022-10-16T08:46:39;16.60;97.50
2543;DHT22;1116;51.502;7.414;2022-10-16T08:49:17;16.60;91.80
2543;DHT22;1116;51.502;7.414;2022-10-16T08:51:51;16.60;85.90
2543;DHT22;1116;51.502;7.414;2022-10-16T08:54:28;16.60;78.70
2543;DHT22;1116;51.502;7.414;2022-10-16T08:57:09;16.60;78.70
2543;DHT22;1116;51.502;7.414;2022-10-16T08:59:48;16.70;76.90
2543;DHT22;1116;51.502;7.414;2022-10-16T09:02:24;16.70;69.60
2543;DHT22;1116;51.502;7.414;2022-10-16T09:05:10;16.70;61.70
2543;DHT22;1116;51.502;7.414;2022-10-16T09:07:54;16.70;58.80
2543;DHT22;1116;51.502;7.414;2022-10-16T09:10:39;16.80;58.30
2543;DHT22;1116;51.502;7.414;2022-10-16T09:13:19;16.80;56.20
2543;DHT22;1116;51.502;7.414;2022-10-16T09:15:59;16.80;51.50
2543;DHT22;1116;51.502;7.414;2022-10-16T09:18:37;16.80;50.80
2543;DHT22;1116;51.502;7.414;2022-10-16T09:21:14;16.80;49.50
2543;DHT22;1116;51.502;7.414;2022-10-16T09:23:51;16.80;50.50
2543;DHT22;1116;51.502;7.414;2022-10-16T09:26:22;16.80;48.30
2543;DHT22;1116;51.502;7.414;2022-10-16T09:28:53;16.80;45.60
2543;DHT22;1116;51.502;7.414;2022-10-16T09:31:24;16.90;46.00
2543;DHT22;1116;51.502;7.414;2022-10-16T09:33:58;17.00;42.90
2543;DHT22;1116;51.502;7.414;2022-10-16T09:36:36;17.10;41.40
2543;DHT22;1116;51.502;7.414;2022-10-16T09:39:12;18.90;43.00
2543;DHT22;1116;51.502;7.414;2022-10-16T09:41:44;17.00;39.00
2543;DHT22;1116;51.502;7.414;2022-10-16T09:44:21;17.10;38.10
2543;DHT22;1116;51.502;7.414;2022-10-16T09:47:01;17.10;38.10
2543;DHT22;1116;51.502;7.414;2022-10-16T09:49:32;17.10;35.90
2543;DHT22;1116;51.502;7.414;2022-10-16T09:52:04;17.10;36.10
2543;DHT22;1116;51.502;7.414;2022-10-16T09:54:49;17.20;37.60
2543;DHT22;1116;51.502;7.414;2022-10-16T09:57:21;17.20;37.60
2543;DHT22;1116;51.502;7.414;2022-10-16T09:59:54;17.30;36.70
2543;DHT22;1116;51.502;7.414;2022-10-16T10:02:30;17.30;36.60
2543;DHT22;1116;51.502;7.414;2022-10-16T10:05:04;17.30;33.30
2543;DHT22;1116;51.502;7.414;2022-10-16T10:07:42;17.60;35.00
2543;DHT22;1116;51.502;7.414;2022-10-16T10:10:22;17.80;34.80
2543;DHT22;1116;51.502;7.414;2022-10-16T10:12:54;17.70;34.10
2543;DHT22;1116;51.502;7.414;2022-10-16T10:15:25;17.70;35.20
2543;DHT22;1116;51.502;7.414;2022-10-16T10:17:59;17.70;32.70
2543;DHT22;1116;51.502;7.414;2022-10-16T10:20:35;17.70;32.50
2543;DHT22;1116;51.502;7.414;2022-10-16T10:23:21;17.70;33.20
2543;DHT22;1116;51.502;7.414;2022-10-16T10:25:59;17.80;32.60
2543;DHT22;1116;51.502;7.414;2022-10-16T10:28:50;17.80;30.40
2543;DHT22;1116;51.502;7.414;2022-10-16T10:31:28;17.90;30.10
2543;DHT22;1116;51.502;7.414;2022-10-16T10:34:09;18.00;31.70
2543;DHT22;1116;51.502;7.414;2022-10-16T10:36:46;18.50;31.40
2543;DHT22;1116;51.502;7.414;2022-10-16T10:39:27;18.30;28.80
2543;DHT22;1116;51.502;7.414;2022-10-16T10:42:12;18.70;26.20
2543;DHT22;1116;51.502;7.414;2022-10-16T10:45:03;18.40;24.90
2543;DHT22;1116;51.502;7.414;2022-10-16T10:47:59;18.40;25.40
2543;DHT22;1116;51.502;7.414;2022-10-16T10:50:41;18.50;25.30
2543;DHT22;1116;51.502;7.414;2022-10-16T10:53:21;18.50;23.40
2543;DHT22;1116;51.502;7.414;2022-10-16T10:56:02;18.50;22.10
2543;DHT22;1116;51.502;7.414;2022-10-16T10:59:14;18.50;23.90
2543;DHT22;1116;51.502;7.414;2022-10-16T11:01:55;18.60;22.50
2543;DHT22;1116;51.502;7.414;2022-10-16T11:04:34;18.60;23.40
2543;DHT22;1116;51.502;7.414;2022-10-16T11:07:13;18.70;21.60
2543;DHT22;1116;51.502;7.414;2022-10-16T11:09:48;18.70;22.30
2543;DHT22;1116;51.502;7.414;2022-10-16T11:12:27;18.70;20.40
2543;DHT22;1116;51.502;7.414;2022-10-16T11:15:11;18.90;17.60
2543;DHT22;1116;51.502;7.414;2022-10-16T11:17:48;18.90;17.70
2543;DHT22;1116;51.502;7.414;2022-10-16T11:20:24;18.90;17.80
2543;DHT22;1116;51.502;7.414;2022-10-16T11:23:00;19.00;19.50
2543;DHT22;1116;51.502;7.414;2022-10-16T11:25:34;19.10;18.30
2543;DHT22;1116;51.502;7.414;2022-10-16T11:28:09;19.30;18.90
2543;DHT22;1116;51.502;7.414;2022-10-16T11:30:47;19.30;18.50
2543;DHT22;1116;51.502;7.414;2022-10-16T11:33:34;19.40;18.10
2543;DHT22;1116;51.502;7.414;2022-10-16T11:36:12;19.40;18.30
2543;DHT22;1116;51.502;7.414;2022-10-16T11:38:49;20.70;19.20
2543;DHT22;1116;51.502;7.414;2022-10-16T11:41:29;19.70;17.60
2543;DHT22;1116;51.502;7.414;2022-10-16T11:44:25;19.80;16.20
2543;DHT22;1116;51.502;7.414;2022-10-16T11:47:11;19.90;14.70
2543;DHT22;1116;51.502;7.414;2022-10-16T11:50:13;19.90;14.80
2543;DHT22;1116;51.502;7.414;2022-10-16T11:52:55;20.10;16.00
2543;DHT22;1116;51.502;7.414;2022-10-16T11:55:30;20.20;12.80
2543;DHT22;1116;51.502;7.414;2022-10-16T11:58:05;20.20;12.50
2543;DHT22;1116;51.502;7.414;2022-10-16T12:00:40;20.20;12.50
2543;DHT22;1116;51.502;7.414;2022-10-16T12:03:22;20.50;12.20
2543;DHT22;1116;51.502;7.414;2022-10-16T12:06:27;21.90;13.70
2543;DHT22;1116;51.502;7.414;2022-10-16T12:09:01;20.60;12.80
2543;DHT22;1116;51.502;7.414;2022-10-16T12:11:35;20.70;12.80
2543;DHT22;1116;51.502;7.414;2022-10-16T12:14:19;20.70;12.80
2543;DHT22;1116;51.502;7.414;2022-10-16T12:16:51;21.10;12.90
2543;DHT22;1116;51.502;7.414;2022-10-16T12:19:26;21.00;9.80
2543;DHT22;1116;51.502;7.414;2022-10-16T12:21:59;20.90;11.70
2543;DHT22;1116;51.502;7.414;2022-10-16T12:24:34;21.10;11.60
2543;DHT22;1116;51.502;7.414;2022-10-16T12:27:19;20.80;7.80
2543;DHT22;1116;51.502;7.414;2022-10-16T12:29:55;20.90;8.40
2543;DHT22;1116;51.502;7.414;2022-10-16T12:32:31;20.80;11.50
2543;DHT22;1116;51.502;7.414;2022-10-16T12:35:22;21.10;7.40
2543;DHT22;1116;51.502;7.414;2022-10-16T12:38:06;20.60;8.20
2543;DHT22;1116;51.502;7.414;2022-10-16T12:40:38;20.50;5.60
2543;DHT22;1116;51.502;7.414;2022-10-16T12:43:25;20.60;7.10
2543;DHT22;1116;51.502;7.414;2022-10-16T12:46:04;20.60;10.30
2543;DHT22;1116;51.502;7.414;2022-10-16T12:48:37;20.70;8.20
2543;DHT22;1116;51.502;7.414;2022-10-16T12:51:36;20.60;6.30
2543;DHT22;1116;51.502;7.414;2022-10-16T12:54:13;22.20;9.30
2543;DHT22;1116;51.502;7.414;2022-10-16T12:56:52;20.90;8.90
2543;DHT22;1116;51.502;7.414;2022-10-16T12:59:35;20.90;5.80
2543;DHT22;1116;51.502;7.414;2022-10-16T13:05:25;20.70;7.20
2543;DHT22;1116;51.502;7.414;2022-10-16T13:08:11;20.70;6.00
2543;DHT22;1116;51.502;7.414;2022-10-16T13:11:00;20.50;5.80
2543;DHT22;1116;51.502;7.414;2022-10-16T13:13:46;20.50;7.80
2543;DHT22;1116;51.502;7.414;2022-10-16T13:16:24;20.50;6.40
2543;DHT22;1116;51.502;7.414;2022-10-16T13:19:09;20.40;6.60
2543;DHT22;1116;51.502;7.414;2022-10-16T13:21:48;20.50;7.40
2543;DHT22;1116;51.502;7.414;2022-10-16T13:24:39;20.50;7.30
2543;DHT22;1116;51.502;7.414;2022-10-16T13:27:21;20.60;4.70
2543;DHT22;1116;51.502;7.414;2022-10-16T13:30:02;20.60;6.40
2543;DHT22;1116;51.502;7.414;2022-10-16T13:32:39;20.60;6.70
2543;DHT22;1116;51.502;7.414;2022-10-16T13:35:21;20.60;7.70
2543;DHT22;1116;51.502;7.414;2022-10-16T13:38:03;20.80;8.10
2543;DHT22;1116;51.502;7.414;2022-10-16T13:40:47;20.90;6.80
2543;DHT22;1116;51.502;7.414;2022-10-16T13:43:24;20.90;7.50
2543;DHT22;1116;51.502;7.414;2022-10-16T13:46:02;20.80;7.80
2543;DHT22;1116;51.502;7.414;2022-10-16T13:48:34;21.30;5.30
2543;DHT22;1116;51.502;7.414;2022-10-16T13:51:06;20.60;6.80
2543;DHT22;1116;51.502;7.414;2022-10-16T13:53:42;20.50;5.10
2543;DHT22;1116;51.502;7.414;2022-10-16T13:56:22;20.90;6.90
2543;DHT22;1116;51.502;7.414;2022-10-16T13:58:58;20.40;5.80
2543;DHT22;1116;51.502;7.414;2022-10-16T14:01:30;20.40;7.60
2543;DHT22;1116;51.502;7.414;2022-10-16T14:04:06;19.10;6.00
2543;DHT22;1116;51.502;7.414;2022-10-16T14:06:42;20.60;5.80
2543;DHT22;1116;51.502;7.414;2022-10-16T14:09:20;20.50;6.10
2543;DHT22;1116;51.502;7.414;2022-10-16T14:11:55;20.40;7.40
2543;DHT22;1116;51.502;7.414;2022-10-16T14:14:34;20.40;8.00
2543;DHT22;1116;51.502;7.414;2022-10-16T14:17:06;20.30;8.30
2543;DHT22;1116;51.502;7.414;2022-10-16T14:19:48;20.40;8.40
2543;DHT22;1116;51.502;7.414;2022-10-16T14:22:31;20.40;7.40
2543;DHT22;1116;51.502;7.414;2022-10-16T14:25:13;20.40;8.00
2543;DHT22;1116;51.502;7.414;2022-10-16T14:28:00;20.10;6.80
2543;DHT22;1116;51.502;7.414;2022-10-16T14:30:33;20.30;5.30
2543;DHT22;1116;51.502;7.414;2022-10-16T14:33:21;20.40;6.80
2543;DHT22;1116;51.502;7.414;2022-10-16T14:36:02;20.40;6.00
2543;DHT22;1116;51.502;7.414;2022-10-16T14:38:36;22.00;8.90
2543;DHT22;1116;51.502;7.414;2022-10-16T14:41:10;21.80;7.90
2543;DHT22;1116;51.502;7.414;2022-10-16T14:43:53;20.90;8.20
2543;DHT22;1116;51.502;7.414;2022-10-16T14:46:31;20.00;7.80
2543;DHT22;1116;51.502;7.414;2022-10-16T14:49:12;19.90;6.70
2543;DHT22;1116;51.502;7.414;2022-10-16T14:51:43;19.90;9.30
2543;DHT22;1116;51.502;7.414;2022-10-16T14:54:16;19.80;8.60
2543;DHT22;1116;51.502;7.414;2022-10-16T14:56:50;19.80;8.50
2543;DHT22;1116;51.502;7.414;2022-10-16T14:59:28;19.90;10.10
2543;DHT22;1116;51.502;7.414;2022-10-16T15:02:01;19.80;9.60
2543;DHT22;1116;51.502;7.414;2022-10-16T15:04:40;19.80;12.30
2543;DHT22;1116;51.502;7.414;2022-10-16T15:07:10;21.10;13.10
2543;DHT22;1116;51.502;7.414;2022-10-16T15:09:43;19.90;12.30
2543;DHT22;1116;51.502;7.414;2022-10-16T15:12:16;19.90;12.00
2543;DHT22;1116;51.502;7.414;2022-10-16T15:14:50;19.90;12.30
2543;DHT22;1116;51.502;7.414;2022-10-16T15:17:22;20.90;13.10
2543;DHT22;1116;51.502;7.414;2022-10-16T15:19:53;19.70;12.20
2543;DHT22;1116;51.502;7.414;2022-10-16T15:22:26;19.60;13.80
2543;DHT22;1116;51.502;7.414;2022-10-16T15:24:56;19.60;12.80
2543;DHT22;1116;51.502;7.414;2022-10-16T15:27:27;19.50;13.20
2543;DHT22;1116;51.502;7.414;2022-10-16T15:30:01;19.30;13.90
2543;DHT22;1116;51.502;7.414;2022-10-16T15:32:32;19.20;15.10
2543;DHT22;1116;51.502;7.414;2022-10-16T15:35:07;19.10;17.30
2543;DHT22;1116;51.502;7.414;2022-10-16T15:37:42;19.10;18.30
2543;DHT22;1116;51.502;7.414;2022-10-16T15:40:15;19.00;20.70
2543;DHT22;1116;51.502;7.414;2022-10-16T15:42:48;19.00;21.80
2543;DHT22;1116;51.502;7.414;2022-10-16T15:45:21;19.00;20.70
2543;DHT22;1116;51.502;7.414;2022-10-16T15:47:55;18.90;24.00
2543;DHT22;1116;51.502;7.414;2022-10-16T15:50:26;18.90;24.30
2543;DHT22;1116;51.502;7.414;2022-10-16T15:52:58;18.90;24.70
2543;DHT22;1116;51.502;7.414;2022-10-16T15:55:30;18.90;24.70
2543;DHT22;1116;51.502;7.414;2022-10-16T15:58:00;18.90;25.10
2543;DHT22;1116;51.502;7.414;2022-10-16T16:00:36;18.90;25.80
2543;DHT22;1116;51.502;7.414;2022-10-16T16:03:07;19.40;27.70
2543;DHT22;1116;51.502;7.414;2022-10-16T16:05:38;18.80;26.50
2543;DHT22;1116;51.502;7.414;2022-10-16T16:08:13;18.70;27.50
2543;DHT22;1116;51.502;7.414;2022-10-16T16:10:57;18.70;29.10
2543;DHT22;1116;51.502;7.414;2022-10-16T16:13:28;18.70;31.50
2543;DHT22;1116;51.502;7.414;2022-10-16T16:16:01;18.70;30.60
2543;DHT22;1116;51.502;7.414;2022-10-16T16:18:32;18.60;31.70
2543;DHT22;1116;51.502;7.414;2022-10-16T16:21:04;18.50;33.70
2543;DHT22;1116;51.502;7.414;2022-10-16T16:23:38;18.50;32.90
2543;DHT22;1116;51.502;7.414;2022-10-16T16:26:12;18.40;34.40
2543;DHT22;1116;51.502;7.414;2022-10-16T16:28:47;18.40;33.70
2543;DHT22;1116;51.502;7.414;2022-10-16T16:31:20;18.30;35.50
2543;DHT22;1116;51.502;7.414;2022-10-16T16:33:56;17.90;33.90
2543;DHT22;1116;51.502;7.414;2022-10-16T16:36:27;19.20;36.20
2543;DHT22;1116;51.502;7.414;2022-10-16T16:38:58;18.20;35.10
2543;DHT22;1116;51.502;7.414;2022-10-16T16:41:30;18.10;36.30
2543;DHT22;1116;51.502;7.414;2022-10-16T16:44:02;18.10;35.10
2543;DHT22;1116;51.502;7.414;2022-10-16T16:46:36;18.10;35.30
2543;DHT22;1116;51.502;7.414;2022-10-16T16:49:09;18.00;35.10
2543;DHT22;1116;51.502;7.414;2022-10-16T16:51:44;18.00;37.50
2543;DHT22;1116;51.502;7.414;2022-10-16T16:54:15;18.00;37.00
2543;DHT22;1116;51.502;7.414;2022-10-16T16:56:46;18.00;37.50
2543;DHT22;1116;51.502;7.414;2022-10-16T16:59:18;17.90;38.80